Salida, California
Current Conditions -  °F | °C
As of 2:53 AM on Thursday 18 Dec 2014 (Local Time) from KMOD Reporting Station
Haze Haze  
Wind Chill: 11°   Ceiling: 6000
Heat Index: 11°   Visibility: 6mi
Dew Point:   Wind: 7mph
Humidity: 92%   Direction: 130°SE
Pressure: 30.11"   Gusts: NA
Location:  37.71°N, 121.09°W
Report Text: KMOD 181053Z AUTO 13006KT 6SM BR OVC060 11/09 A3011 RMK AO2 RAE52 SLP198 P0002 T01060094
Loading
Personal Weather Stations






























Interactive Weather Map New forecast layout! Learn more

10-Day Weather Forecast

Advertisements
Track Severe Weather on mobile